Time;durP1;ratioP1;P1;durP2;ratioP2;P2;SDS_P1;SDS_P2;PMS_P1;PMS_P2;Temp;Humidity;BMP_temperature;BMP_pressure;BME280_temperature;BME280_humidity;BME280_pressure;Samples;Min_cycle;Max_cycle;Signal;HPM_P1;HPM_P2
2022/04/24 00:01:34;;;;;;;;;;;;;;;3.25;37.14;97303.31;6371188;27;19923;-65
2022/04/24 00:04:38;;;;;;;;;;;;;;;3.17;37.20;97298.34;6371878;27;19934;-64
2022/04/24 00:07:39;;;;;;;;;;;;;;;3.03;37.42;97303.94;6370626;27;19923;-63
2022/04/24 00:10:40;;;;;;;;;;;;;;;2.93;37.48;97305.91;6370664;27;19968;-64
2022/04/24 00:13:42;;;;;;;;;;;;;;;2.84;38.14;97302.75;6352858;27;19923;-64
2022/04/24 00:16:46;;;;;;;;;;;;;;;2.78;37.54;97315.91;6371757;27;20291;-64
2022/04/24 00:19:48;;;;;;;;;;;;;;;2.69;37.95;97301.41;6352389;28;20036;-65
2022/04/24 00:22:49;;;;;;;;;;;;;;;2.58;37.80;97301.69;6371654;28;20030;-63
2022/04/24 00:25:50;;;;;;;;;;;;;;;2.49;38.00;97314.88;6371321;28;19923;-64
2022/04/24 00:28:53;;;;;;;;;;;;;;;2.44;38.60;97308.97;6371552;28;19923;-64
2022/04/24 00:31:57;;;;;;;;;;;;;;;2.42;41.13;97305.56;6371384;28;19927;-64
2022/04/24 00:34:58;;;;;;;;;;;;;;;2.39;38.96;97316.03;6370665;28;19930;-63
2022/04/24 00:37:59;;;;;;;;;;;;;;;2.37;39.71;97312.63;6370004;28;19929;-63
2022/04/24 00:41:00;;;;;;;;;;;;;;;2.32;39.96;97314.47;6373540;27;20388;-64
2022/04/24 00:44:01;;;;;;;;;;;;;;;2.36;40.94;97324.75;6357542;27;20396;-65
2022/04/24 00:47:06;;;;;;;;;;;;;;;2.36;38.34;97316.13;6376192;27;19923;-63
2022/04/24 00:50:12;;;;;;;;;;;;;;;2.33;38.03;97316.19;6375293;27;20501;-64
2022/04/24 00:53:13;;;;;;;;;;;;;;;2.28;38.13;97313.69;6376102;27;20025;-63
2022/04/24 00:56:15;;;;;;;;;;;;;;;2.23;38.88;97311.22;6376126;27;19929;-64
2022/04/24 00:59:21;;;;;;;;;;;;;;;2.17;38.59;97310.53;6376244;27;20367;-63
2022/04/24 01:02:22;;;;;;;;;;;;;;;2.13;38.79;97309.75;6376054;27;19951;-63
2022/04/24 01:05:23;;;;;;;;;;;;;;;2.14;38.53;97321.81;6374775;27;19923;-64
2022/04/24 01:08:27;;;;;;;;;;;;;;;2.12;38.16;97322.75;6375635;27;19923;-63
2022/04/24 01:11:28;;;;;;;;;;;;;;;2.13;38.66;97320.13;6375789;27;20065;-63
2022/04/24 01:14:30;;;;;;;;;;;;;;;2.20;38.08;97321.66;6375581;27;19930;-65
2022/04/24 01:17:31;;;;;;;;;;;;;;;2.20;38.34;97319.06;6374834;27;19961;-64
2022/04/24 01:20:34;;;;;;;;;;;;;;;2.25;38.19;97335.41;6375599;27;20487;-64
2022/04/24 01:23:38;;;;;;;;;;;;;;;2.25;38.52;97335.41;6375425;27;19927;-64
2022/04/24 01:26:39;;;;;;;;;;;;;;;2.29;39.29;97337.91;6374520;27;19930;-64
2022/04/24 01:29:40;;;;;;;;;;;;;;;2.35;38.88;97340.34;6375493;27;19923;-64
2022/04/24 01:32:41;;;;;;;;;;;;;;;2.39;37.36;97339.41;6375112;27;19924;-64
2022/04/24 01:35:47;;;;;;;;;;;;;;;2.42;37.46;97341.94;6375320;27;19923;-63
2022/04/24 01:38:50;;;;;;;;;;;;;;;2.41;38.05;97348.03;6375241;27;20022;-63
2022/04/24 01:41:55;;;;;;;;;;;;;;;2.43;37.57;97351.41;6374834;27;19924;-63
2022/04/24 01:44:56;;;;;;;;;;;;;;;2.43;37.99;97344.47;6374431;27;20500;-64
2022/04/24 01:47:57;;;;;;;;;;;;;;;2.45;38.28;97347.03;6375233;27;19931;-64
2022/04/24 01:51:16;;;;;;;;;;;;;;;2.45;37.89;97352.25;6375094;27;19923;-63
2022/04/24 01:54:17;;;;;;;;;;;;;;;2.50;38.03;97350.38;6374376;27;19923;-64
2022/04/24 01:57:18;;;;;;;;;;;;;;;2.55;38.16;97358.91;6374100;27;19931;-64
2022/04/24 02:00:19;;;;;;;;;;;;;;;2.64;37.88;97348.28;6355243;27;19930;-63
2022/04/24 02:03:22;;;;;;;;;;;;;;;2.72;38.16;97355.00;6374000;27;20332;-64
2022/04/24 02:06:24;;;;;;;;;;;;;;;2.79;38.96;97356.56;6374650;27;19923;-64
2022/04/24 02:09:27;;;;;;;;;;;;;;;2.85;40.51;97352.06;6374013;27;20385;-64
2022/04/24 02:12:30;;;;;;;;;;;;;;;2.96;37.40;97353.53;6374434;27;19923;-66
2022/04/24 02:15:32;;;;;;;;;;;;;;;3.04;37.01;97359.38;6373140;27;19930;-64
2022/04/24 02:18:33;;;;;;;;;;;;;;;3.10;37.60;97354.84;6373487;27;20431;-64
2022/04/24 02:21:36;;;;;;;;;;;;;;;3.17;37.63;97363.34;6373148;27;19924;-64
2022/04/24 02:24:37;;;;;;;;;;;;;;;3.26;39.02;97355.28;6373110;27;20040;-64
2022/04/24 02:27:38;;;;;;;;;;;;;;;3.41;37.52;97361.81;6373955;27;20392;-65
2022/04/24 02:30:55;;;;;;;;;;;;;;;3.52;37.45;97370.16;6373858;27;19923;-64
2022/04/24 02:33:56;;;;;;;;;;;;;;;3.63;38.24;97361.19;6372712;27;19923;-64
2022/04/24 02:36:57;;;;;;;;;;;;;;;3.76;37.41;97367.72;6373226;27;19923;-65
2022/04/24 02:40:00;;;;;;;;;;;;;;;3.86;37.11;97363.97;6372653;27;19930;-64
2022/04/24 02:43:02;;;;;;;;;;;;;;;3.94;36.96;97361.97;6372380;27;19930;-64
2022/04/24 02:46:03;;;;;;;;;;;;;;;4.08;36.72;97363.28;6372182;27;20388;-64
2022/04/24 02:49:07;;;;;;;;;;;;;;;4.17;36.54;97363.00;6372774;27;20307;-64
2022/04/24 02:52:08;;;;;;;;;;;;;;;4.26;36.05;97362.72;6372539;27;19945;-64
2022/04/24 02:55:12;;;;;;;;;;;;;;;4.38;35.56;97364.91;6373251;27;19927;-64
2022/04/24 02:58:16;;;;;;;;;;;;;;;4.49;35.42;97364.56;6373213;27;19930;-64
2022/04/24 03:01:18;;;;;;;;;;;;;;;4.61;35.02;97365.91;6372298;27;19923;-64
2022/04/24 03:04:21;;;;;;;;;;;;;;;4.72;34.95;97376.84;6373016;27;20385;-64
2022/04/24 03:07:25;;;;;;;;;;;;;;;4.83;34.78;97374.72;6372934;27;19924;-65
2022/04/24 03:10:29;;;;;;;;;;;;;;;4.95;34.46;97379.53;6372811;27;19923;-64
2022/04/24 03:13:33;;;;;;;;;;;;;;;5.10;34.10;97379.91;6372898;27;19927;-63
2022/04/24 03:16:35;;;;;;;;;;;;;;;5.18;34.05;97380.50;6371329;27;19926;-65
2022/04/24 03:19:38;;;;;;;;;;;;;;;5.25;34.24;97371.53;6371697;27;19930;-64
2022/04/24 03:22:39;;;;;;;;;;;;;;;5.34;33.56;97368.59;6371706;27;19962;-64
2022/04/24 03:25:41;;;;;;;;;;;;;;;5.43;33.83;97369.16;6353965;27;19928;-65
2022/04/24 03:28:43;;;;;;;;;;;;;;;5.51;33.87;97374.97;6371841;27;19919;-65
2022/04/24 03:31:45;;;;;;;;;;;;;;;5.59;33.60;97371.16;6371452;27;20273;-63
2022/04/24 03:34:46;;;;;;;;;;;;;;;5.66;33.60;97371.78;6372500;27;19930;-65
2022/04/24 03:37:49;;;;;;;;;;;;;;;5.75;33.42;97371.44;6372491;27;19923;-65
2022/04/24 03:40:50;;;;;;;;;;;;;;;5.88;33.60;97377.03;6372403;27;19923;-64
2022/04/24 03:43:51;;;;;;;;;;;;;;;5.97;33.28;97373.25;6372008;27;19923;-64
2022/04/24 03:46:53;;;;;;;;;;;;;;;6.07;33.35;97378.06;6371918;27;19930;-65
2022/04/24 03:49:54;;;;;;;;;;;;;;;6.19;32.92;97381.97;6371293;27;19923;-65
2022/04/24 03:52:55;;;;;;;;;;;;;;;6.36;32.87;97386.53;6371864;27;20316;-64
2022/04/24 03:55:56;;;;;;;;;;;;;;;6.44;33.07;97386.22;6353148;27;19923;-63
2022/04/24 03:59:00;;;;;;;;;;;;;;;6.53;32.58;97385.84;6371064;27;19923;-64
2022/04/24 04:02:03;;;;;;;;;;;;;;;6.63;32.78;97386.34;6371792;27;19927;-64
2022/04/24 04:05:04;;;;;;;;;;;;;;;6.72;32.62;97388.59;6371097;27;20583;-64
2022/04/24 04:08:08;;;;;;;;;;;;;;;6.83;32.67;97390.75;6371635;27;19923;-64
2022/04/24 04:11:09;;;;;;;;;;;;;;;6.93;32.50;97390.28;6371782;27;19947;-64
2022/04/24 04:14:13;;;;;;;;;;;;;;;7.04;32.22;97394.22;6371756;27;20076;-64
2022/04/24 04:17:16;;;;;;;;;;;;;;;7.14;32.32;97385.94;6371293;27;20381;-64
2022/04/24 04:20:22;;;;;;;;;;;;;;;7.25;32.17;97384.63;6371511;27;19923;-65
2022/04/24 04:23:23;;;;;;;;;;;;;;;7.40;31.89;97389.19;6370948;28;20006;-67
2022/04/24 04:26:24;;;;;;;;;;;;;;;7.54;31.85;97389.41;6370681;28;20057;-69
2022/04/24 04:29:25;;;;;;;;;;;;;;;7.68;31.68;97390.59;6370006;28;19930;-69
2022/04/24 04:32:27;;;;;;;;;;;;;;;7.79;31.48;97388.31;6352051;28;19930;-68
2022/04/24 04:35:28;;;;;;;;;;;;;;;7.90;31.56;97386.06;6370619;28;19924;-69
2022/04/24 04:38:29;;;;;;;;;;;;;;;8.08;30.99;97393.06;6371229;28;20407;-68
2022/04/24 04:41:30;;;;;;;;;;;;;;;8.18;30.85;97393.50;6371479;28;19930;-69
2022/04/24 04:44:31;;;;;;;;;;;;;;;8.22;30.53;97389.81;6352380;28;19923;-69
2022/04/24 04:47:32;;;;;;;;;;;;;;;8.27;30.36;97381.72;6371215;28;19923;-68
2022/04/24 04:50:34;;;;;;;;;;;;;;;8.39;30.32;97386.41;6371228;28;19930;-69
2022/04/24 04:53:35;;;;;;;;;;;;;;;8.66;30.04;97393.84;6371308;28;20012;-68
2022/04/24 04:56:37;;;;;;;;;;;;;;;11.42;26.93;97397.31;6370404;28;19933;-69
2022/04/24 04:59:38;;;;;;;;;;;;;;;16.73;22.25;97405.88;6370470;28;20569;-69
2022/04/24 05:02:40;;;;;;;;;;;;;;;22.02;18.55;97407.13;6371072;28;19930;-69
2022/04/24 05:05:41;;;;;;;;;;;;;;;26.22;15.18;97415.09;6370342;28;19930;-70
2022/04/24 05:08:43;;;;;;;;;;;;;;;29.73;15.40;97421.72;6369889;28;19930;-70
2022/04/24 05:11:44;;;;;;;;;;;;;;;32.62;13.77;97422.66;6369864;28;19927;-71
2022/04/24 05:14:45;;;;;;;;;;;;;;;34.60;13.12;97418.09;6370009;28;20036;-71
2022/04/24 05:17:49;;;;;;;;;;;;;;;36.37;12.11;97415.34;6371052;28;19923;-71
2022/04/24 05:20:50;;;;;;;;;;;;;;;37.80;11.33;97421.78;6370278;28;19923;-70
2022/04/24 05:23:52;;;;;;;;;;;;;;;39.17;10.47;97426.53;6370293;28;19960;-71
2022/04/24 05:26:54;;;;;;;;;;;;;;;40.48;9.61;97426.16;6370513;27;19923;-71
2022/04/24 05:29:55;;;;;;;;;;;;;;;40.89;9.61;97420.56;6374434;27;20400;-71
2022/04/24 05:32:56;;;;;;;;;;;;;;;41.01;9.36;97418.28;6374585;27;19997;-71
2022/04/24 05:35:57;;;;;;;;;;;;;;;41.01;8.14;97417.47;6375367;27;19929;-71
2022/04/24 05:38:59;;;;;;;;;;;;;;;41.59;5.00;97416.91;6374287;27;19930;-71
2022/04/24 05:42:03;;;;;;;;;;;;;;;42.77;7.50;97420.31;6375282;27;20451;-71
2022/04/24 05:45:09;;;;;;;;;;;;;;;43.55;7.31;97421.03;6375060;27;20364;-71
2022/04/24 05:48:10;;;;;;;;;;;;;;;44.31;6.79;97418.97;6374576;27;19930;-70
2022/04/24 05:51:13;;;;;;;;;;;;;;;43.62;6.11;97417.88;6375110;27;20017;-71
2022/04/24 05:54:17;;;;;;;;;;;;;;;43.79;5.91;97420.09;6374165;27;19923;-71
2022/04/24 05:57:19;;;;;;;;;;;;;;;43.74;5.46;97420.19;6373909;27;20293;-70
2022/04/24 06:00:21;;;;;;;;;;;;;;;44.08;3.46;97414.38;6373965;27;20296;-71
2022/04/24 06:03:22;;;;;;;;;;;;;;;44.65;4.66;97417.81;6373963;27;20017;-71
2022/04/24 06:06:24;;;;;;;;;;;;;;;44.55;4.12;97416.03;6374034;27;20022;-71
2022/04/24 06:09:25;;;;;;;;;;;;;;;45.62;5.06;97417.75;6373906;27;19923;-72
2022/04/24 06:12:26;;;;;;;;;;;;;;;45.45;3.57;97419.22;6373399;27;19930;-71
2022/04/24 06:15:28;;;;;;;;;;;;;;;44.86;3.44;97412.69;6355421;27;20031;-69
2022/04/24 06:18:31;;;;;;;;;;;;;;;44.93;3.85;97406.72;6373768;27;19923;-71
2022/04/24 06:21:32;;;;;;;;;;;;;;;45.30;3.53;97405.69;6373513;27;19923;-69
2022/04/24 06:24:34;;;;;;;;;;;;;;;45.61;3.66;97399.41;6373605;27;20411;-71
2022/04/24 06:27:35;;;;;;;;;;;;;;;45.42;2.95;97397.59;6373291;27;20072;-72
2022/04/24 06:30:40;;;;;;;;;;;;;;;44.91;2.64;97389.56;6373256;27;19924;-72
2022/04/24 06:33:43;;;;;;;;;;;;;;;44.44;3.49;97386.84;6373045;27;19930;-70
2022/04/24 06:36:45;;;;;;;;;;;;;;;45.40;3.05;97390.72;6373080;27;19965;-70
2022/04/24 06:39:47;;;;;;;;;;;;;;;46.49;2.86;97393.34;6371591;27;19923;-68
2022/04/24 06:42:49;;;;;;;;;;;;;;;46.94;2.79;97404.31;6371884;27;19923;-68
2022/04/24 06:45:52;;;;;;;;;;;;;;;46.93;2.47;97395.16;6372476;27;19924;-67
2022/04/24 06:48:55;;;;;;;;;;;;;;;45.85;2.45;97382.44;6372560;27;19923;-65
2022/04/24 06:51:59;;;;;;;;;;;;;;;46.24;2.67;97390.06;6373024;27;19927;-65
2022/04/24 06:55:01;;;;;;;;;;;;;;;45.29;2.37;97381.78;6372512;27;20296;-64
2022/04/24 06:58:07;;;;;;;;;;;;;;;44.58;2.81;97378.53;6373025;27;19927;-65
2022/04/24 07:01:13;;;;;;;;;;;;;;;44.77;2.71;97382.06;6372618;27;19923;-67
2022/04/24 07:04:14;;;;;;;;;;;;;;;44.44;2.73;97381.28;6372072;27;20027;-65
2022/04/24 07:07:17;;;;;;;;;;;;;;;44.80;2.66;97375.06;6372808;27;20252;-65
2022/04/24 07:10:20;;;;;;;;;;;;;;;45.57;2.51;97365.88;6372990;27;19923;-65
2022/04/24 07:13:23;;;;;;;;;;;;;;;46.36;2.25;97370.84;6372041;27;19993;-64
2022/04/24 07:16:24;;;;;;;;;;;;;;;47.61;1.84;97373.31;6372167;27;20378;-65
2022/04/24 07:19:26;;;;;;;;;;;;;;;47.77;1.60;97378.41;6372149;27;20376;-65
2022/04/24 07:22:28;;;;;;;;;;;;;;;46.75;2.11;97371.19;6371959;27;20019;-68
2022/04/24 07:25:33;;;;;;;;;;;;;;;46.30;1.75;97366.56;6371741;27;19923;-65
2022/04/24 07:28:36;;;;;;;;;;;;;;;45.40;2.03;97366.53;6371802;27;19976;-66
2022/04/24 07:31:42;;;;;;;;;;;;;;;45.33;1.78;97366.16;6372659;27;19923;-64
2022/04/24 07:34:48;;;;;;;;;;;;;;;43.93;1.91;97351.66;6372320;27;19923;-65
2022/04/24 07:37:50;;;;;;;;;;;;;;;44.14;2.05;97347.44;6371212;27;20397;-65
2022/04/24 07:40:51;;;;;;;;;;;;;;;44.36;2.10;97343.16;6371415;27;20001;-65
2022/04/24 07:43:56;;;;;;;;;;;;;;;45.74;2.02;97345.72;6371440;27;19959;-65
2022/04/24 07:47:01;;;;;;;;;;;;;;;46.74;1.19;97359.25;6371927;27;19928;-65
2022/04/24 07:50:04;;;;;;;;;;;;;;;46.43;1.80;97348.13;6352382;27;20380;-65
2022/04/24 07:53:07;;;;;;;;;;;;;;;47.75;1.41;97350.00;6370945;27;19923;-66
2022/04/24 07:56:11;;;;;;;;;;;;;;;48.05;1.09;97348.19;6372007;27;19977;-65
2022/04/24 07:59:13;;;;;;;;;;;;;;;47.87;1.23;97350.16;6370851;27;20025;-65
2022/04/24 08:02:14;;;;;;;;;;;;;;;47.79;1.19;97348.22;6352914;27;19976;-65
2022/04/24 08:05:38;;;;;;;;;;;;;;;48.09;1.12;97340.78;6370833;27;19975;-65
2022/04/24 08:08:40;;;;;;;;;;;;;;;48.52;1.08;97343.44;6358060;27;20380;-66
2022/04/24 08:11:44;;;;;;;;;;;;;;;47.98;1.23;97340.31;6371696;27;20404;-64
2022/04/24 08:14:50;;;;;;;;;;;;;;;48.10;1.03;97342.41;6371588;27;20029;-65
2022/04/24 08:17:53;;;;;;;;;;;;;;;45.74;1.40;97334.59;6371002;27;19924;-65
2022/04/24 08:20:58;;;;;;;;;;;;;;;44.31;1.95;97334.94;6371523;27;20311;-65
2022/04/24 08:24:01;;;;;;;;;;;;;;;43.83;1.52;97329.69;6371528;28;20354;-64
2022/04/24 08:27:02;;;;;;;;;;;;;;;43.25;2.46;97322.53;6352641;28;19985;-65
2022/04/24 08:30:05;;;;;;;;;;;;;;;45.02;1.55;97332.66;6370361;28;20012;-65
2022/04/24 08:33:06;;;;;;;;;;;;;;;45.55;1.74;97322.84;6335403;28;20008;-65
2022/04/24 08:36:12;;;;;;;;;;;;;;;45.31;1.64;97329.53;6371357;28;19930;-65
2022/04/24 08:39:14;;;;;;;;;;;;;;;45.76;1.71;97324.00;6370453;28;19930;-65
2022/04/24 08:42:21;;;;;;;;;;;;;;;46.66;1.57;97323.84;6371267;28;19923;-65
2022/04/24 08:45:26;;;;;;;;;;;;;;;47.44;0.96;97320.34;6369806;28;19924;-64
2022/04/24 08:48:33;;;;;;;;;;;;;;;47.08;1.22;97326.22;6371038;28;19923;-66
2022/04/24 08:51:38;;;;;;;;;;;;;;;46.56;1.21;97318.53;6370988;28;19973;-65
2022/04/24 08:54:41;;;;;;;;;;;;;;;45.80;1.35;97313.88;6370728;28;20293;-65
2022/04/24 08:57:45;;;;;;;;;;;;;;;45.15;1.48;97311.56;6371285;28;19923;-65
2022/04/24 09:00:46;;;;;;;;;;;;;;;44.89;1.59;97298.22;6370296;27;19934;-64
2022/04/24 09:03:50;;;;;;;;;;;;;;;45.53;1.31;97303.75;6376140;27;20344;-64
2022/04/24 09:06:55;;;;;;;;;;;;;;;44.87;1.63;97297.72;6375037;27;19984;-64
2022/04/24 09:09:56;;;;;;;;;;;;;;;45.33;1.74;97299.47;6375275;27;20304;-65
2022/04/24 09:13:03;;;;;;;;;;;;;;;45.78;1.69;97299.50;6375874;27;19923;-65
2022/04/24 09:16:04;;;;;;;;;;;;;;;46.53;1.49;97291.34;6356905;27;19993;-65
2022/04/24 09:19:19;;;;;;;;;;;;;;;46.86;1.11;97285.41;6375766;27;19924;-65
2022/04/24 09:22:23;;;;;;;;;;;;;;;46.99;1.39;97289.97;6374383;27;19923;-65
2022/04/24 09:25:37;;;;;;;;;;;;;;;46.70;1.34;97285.84;6375204;27;19923;-66
2022/04/24 09:28:43;;;;;;;;;;;;;;;46.51;1.27;97288.06;6375399;27;20009;-65
2022/04/24 09:31:51;;;;;;;;;;;;;;;45.43;1.53;97276.97;6375203;27;19930;-64
2022/04/24 09:34:58;;;;;;;;;;;;;;;44.83;1.55;97268.13;6375329;27;20021;-64
2022/04/24 09:38:06;;;;;;;;;;;;;;;44.81;1.87;97271.22;6375192;27;20052;-65
2022/04/24 09:41:17;;;;;;;;;;;;;;;45.30;1.74;97264.00;6374176;27;19930;-65
2022/04/24 09:44:23;;;;;;;;;;;;;;;44.89;1.39;97272.44;6375102;27;19923;-66
2022/04/24 09:47:25;;;;;;;;;;;;;;;43.57;1.75;97255.31;6374230;27;19927;-65
2022/04/24 09:50:29;;;;;;;;;;;;;;;43.45;1.90;97246.59;6374945;27;19927;-65
2022/04/24 09:53:36;;;;;;;;;;;;;;;43.98;2.09;97249.03;6374796;27;19923;-64
2022/04/24 09:56:37;;;;;;;;;;;;;;;44.39;1.65;97253.75;6374347;27;19924;-64
2022/04/24 09:59:43;;;;;;;;;;;;;;;44.32;1.89;97247.78;6374595;27;19927;-64
2022/04/24 10:02:46;;;;;;;;;;;;;;;44.23;1.71;97244.13;6373906;27;20414;-64
2022/04/24 10:05:50;;;;;;;;;;;;;;;43.81;1.69;97229.38;6374502;27;20393;-64
2022/04/24 10:08:53;;;;;;;;;;;;;;;43.18;2.24;97226.00;6374425;27;20127;-65
2022/04/24 10:12:16;;;;;;;;;;;;;;;42.58;1.91;97228.53;6356061;27;20300;-65
2022/04/24 10:15:20;;;;;;;;;;;;;;;41.09;2.36;97214.59;6373288;27;19998;-64
2022/04/24 10:18:30;;;;;;;;;;;;;;;40.10;2.70;97204.31;6374133;27;19923;-65
2022/04/24 10:21:40;;;;;;;;;;;;;;;39.44;2.85;97213.56;6374056;27;19923;-65
2022/04/24 10:24:46;;;;;;;;;;;;;;;39.93;2.79;97199.13;6355135;27;19934;-65
2022/04/24 10:27:48;;;;;;;;;;;;;;;40.35;2.57;97192.38;6373164;27;19959;-65
2022/04/24 10:31:00;;;;;;;;;;;;;;;40.19;2.73;97197.13;6373220;27;19923;-65
2022/04/24 10:34:06;;;;;;;;;;;;;;;38.67;2.70;97185.97;6374069;27;20014;-65
2022/04/24 10:37:09;;;;;;;;;;;;;;;37.22;3.22;97188.19;6372944;27;19923;-65
2022/04/24 10:40:14;;;;;;;;;;;;;;;37.20;3.31;97187.66;6373088;27;19946;-65
2022/04/24 10:43:20;;;;;;;;;;;;;;;37.46;3.33;97185.09;6373312;27;19923;-65
2022/04/24 10:46:32;;;;;;;;;;;;;;;37.59;3.34;97183.81;6373612;27;19923;-64
2022/04/24 10:49:35;;;;;;;;;;;;;;;37.25;3.51;97184.09;6372570;27;19924;-65
2022/04/24 10:52:43;;;;;;;;;;;;;;;37.43;3.57;97180.97;6373380;27;19967;-64
2022/04/24 10:55:46;;;;;;;;;;;;;;;36.92;3.41;97179.72;6373283;27;19927;-65
2022/04/24 10:58:50;;;;;;;;;;;;;;;35.58;3.79;97171.81;6373265;27;19923;-65
2022/04/24 11:01:52;;;;;;;;;;;;;;;34.35;4.42;97166.97;6354323;27;20304;-65
2022/04/24 11:05:06;;;;;;;;;;;;;;;33.93;4.32;97166.38;6373244;27;20334;-66
2022/04/24 11:08:08;;;;;;;;;;;;;;;34.27;4.30;97167.38;6371884;27;20312;-65
2022/04/24 11:11:13;;;;;;;;;;;;;;;34.71;4.16;97167.66;6372294;27;19945;-65
2022/04/24 11:14:21;;;;;;;;;;;;;;;34.79;4.11;97161.81;6372841;27;19934;-66
2022/04/24 11:17:22;;;;;;;;;;;;;;;34.68;4.22;97162.69;6372022;27;19930;-66
2022/04/24 11:20:31;;;;;;;;;;;;;;;34.71;4.17;97155.88;6372284;27;19923;-65
2022/04/24 11:23:38;;;;;;;;;;;;;;;34.67;4.03;97155.56;6372436;27;19924;-66
2022/04/24 11:26:46;;;;;;;;;;;;;;;34.35;4.34;97153.31;6371539;27;19999;-65
2022/04/24 11:29:47;;;;;;;;;;;;;;;33.97;4.64;97162.94;6372478;27;19930;-65
2022/04/24 11:33:17;;;;;;;;;;;;;;;33.85;4.65;97158.56;6372358;27;20389;-66
2022/04/24 11:36:21;;;;;;;;;;;;;;;33.40;4.85;97145.56;6369316;27;19923;-65
2022/04/24 11:39:25;;;;;;;;;;;;;;;33.22;4.99;97143.78;6372204;27;19988;-65
2022/04/24 11:42:28;;;;;;;;;;;;;;;32.37;4.77;97136.72;6371349;27;20026;-66
2022/04/24 11:52:26;;;;;;;;;;;;;;;30.09;5.87;97136.38;6298688;27;20392;-65
2022/04/24 11:56:01;;;;;;;;;;;;;;;29.09;6.27;97136.63;6371838;27;19942;-65
2022/04/24 11:58:52;;;;;;;;;;;;;;;28.45;6.47;97137.25;6371002;27;19991;-65
2022/04/24 12:01:59;;;;;;;;;;;;;;;28.19;6.61;97125.31;6371174;27;20056;-65
2022/04/24 12:05:08;;;;;;;;;;;;;;;27.86;7.03;97118.97;6371308;27;19923;-66
2022/04/24 12:08:14;;;;;;;;;;;;;;;27.54;6.98;97110.47;6371826;27;19923;-66
2022/04/24 12:11:28;;;;;;;;;;;;;;;27.26;7.17;97114.09;6371109;27;20269;-65
2022/04/24 12:14:29;;;;;;;;;;;;;;;26.78;7.05;97113.94;6371192;27;19923;-65
2022/04/24 12:17:32;;;;;;;;;;;;;;;26.49;7.17;97119.47;6371663;27;19923;-65
2022/04/24 12:20:40;;;;;;;;;;;;;;;26.58;7.56;97123.72;6371403;27;20363;-66
2022/04/24 12:23:48;;;;;;;;;;;;;;;26.76;7.22;97117.88;6370835;28;19923;-64
2022/04/24 12:26:52;;;;;;;;;;;;;;;26.75;7.11;97117.03;6371686;28;19927;-65
2022/04/24 12:29:57;;;;;;;;;;;;;;;26.83;7.09;97114.16;6352622;28;20396;-65
2022/04/24 12:33:05;;;;;;;;;;;;;;;26.87;7.49;97115.47;6370630;28;19924;-66
2022/04/24 12:36:13;;;;;;;;;;;;;;;26.40;7.44;97119.59;6371475;27;19965;-65
2022/04/24 12:39:14;;;;;;;;;;;;;;;25.71;7.55;97113.88;6375751;27;20003;-65
2022/04/24 12:42:17;;;;;;;;;;;;;;;24.93;7.83;97115.25;6376409;27;20304;-65
2022/04/24 12:45:20;;;;;;;;;;;;;;;24.50;8.10;97110.44;6376375;27;19930;-66
2022/04/24 12:48:24;;;;;;;;;;;;;;;24.49;8.11;97114.16;6376451;27;19927;-65
2022/04/24 12:51:27;;;;;;;;;;;;;;;24.54;8.09;97111.75;6376356;27;19924;-66
2022/04/24 12:54:29;;;;;;;;;;;;;;;23.90;8.51;97103.13;6375542;27;19927;-65
2022/04/24 12:57:30;;;;;;;;;;;;;;;22.94;8.91;97106.84;6357706;27;19924;-65
2022/04/24 13:00:32;;;;;;;;;;;;;;;22.06;9.20;97105.69;6357327;27;20064;-64
2022/04/24 13:03:34;;;;;;;;;;;;;;;21.62;9.36;97110.44;6376070;27;19934;-65
2022/04/24 13:06:39;;;;;;;;;;;;;;;21.40;9.41;97111.84;6375738;27;20426;-65
2022/04/24 13:09:43;;;;;;;;;;;;;;;21.07;9.57;97112.53;6375440;27;20018;-65
2022/04/24 13:12:48;;;;;;;;;;;;;;;21.04;9.64;97112.84;6375388;27;19924;-65
2022/04/24 13:19:14;;;;;;;;;;;;;;;20.08;9.89;97103.94;6357265;27;20404;-65
2022/04/24 13:22:15;;;;;;;;;;;;;;;20.08;9.87;97115.47;6374556;27;20380;-64
2022/04/24 13:25:16;;;;;;;;;;;;;;;20.18;9.90;97110.91;6374567;27;19923;-64
2022/04/24 13:28:17;;;;;;;;;;;;;;;20.53;10.28;97114.53;6374452;27;20407;-67
2022/04/24 13:31:18;;;;;;;;;;;;;;;20.58;10.14;97112.25;6374253;27;19924;-65
2022/04/24 13:34:21;;;;;;;;;;;;;;;20.82;9.95;97110.72;6375228;27;20362;-65
2022/04/24 13:40:44;;;;;;;;;;;;;;;21.47;9.62;97113.75;6373960;27;19923;-65
2022/04/24 13:43:48;;;;;;;;;;;;;;;21.18;9.87;97105.22;6374853;27;19923;-65
2022/04/24 13:46:49;;;;;;;;;;;;;;;20.99;10.26;97104.47;6374873;27;19930;-65
2022/04/24 13:49:51;;;;;;;;;;;;;;;20.85;9.91;97107.72;6372773;27;19942;-67
2022/04/24 13:52:55;;;;;;;;;;;;;;;20.35;10.17;97111.00;6373985;27;19927;-64
2022/04/24 13:55:59;;;;;;;;;;;;;;;19.97;10.34;97107.69;6373621;27;19930;-65
2022/04/24 13:59:02;;;;;;;;;;;;;;;19.23;10.98;97098.84;6373619;27;20411;-65
2022/04/24 14:02:06;;;;;;;;;;;;;;;18.73;11.18;97096.47;6373413;27;19931;-65
2022/04/24 14:05:11;;;;;;;;;;;;;;;18.34;11.48;97096.56;6373533;27;19923;-65
2022/04/24 14:08:19;;;;;;;;;;;;;;;18.15;11.72;97101.91;6373152;27;20014;-64
2022/04/24 14:11:20;;;;;;;;;;;;;;;17.79;11.81;97090.97;6372969;27;19923;-65
2022/04/24 14:14:23;;;;;;;;;;;;;;;17.85;11.88;97090.41;6374309;27;19927;-65
2022/04/24 14:17:27;;;;;;;;;;;;;;;17.65;11.92;97083.38;6374226;27;19923;-66
2022/04/24 14:20:31;;;;;;;;;;;;;;;17.54;11.86;97091.47;6373977;27;19924;-66
2022/04/24 14:23:33;;;;;;;;;;;;;;;17.49;12.18;97090.06;6373284;27;20297;-66
2022/04/24 14:26:34;;;;;;;;;;;;;;;17.20;12.27;97090.00;6373313;27;19927;-69
2022/04/24 14:29:35;;;;;;;;;;;;;;;16.96;12.65;97082.38;6373563;27;20311;-69
2022/04/24 14:32:40;;;;;;;;;;;;;;;16.72;12.83;97081.78;6373554;27;19930;-66
2022/04/24 14:35:44;;;;;;;;;;;;;;;16.47;13.07;97081.25;6373941;27;19928;-68
2022/04/24 14:38:45;;;;;;;;;;;;;;;16.19;13.32;97072.13;6373131;27;19923;-69
2022/04/24 14:41:46;;;;;;;;;;;;;;;15.85;13.43;97082.06;6372699;27;20488;-68
2022/04/24 14:44:50;;;;;;;;;;;;;;;15.61;13.63;97083.09;6373958;27;19929;-69
2022/04/24 14:58:06;;;;;;;;;;;;;;;15.01;14.45;97084.44;6373353;27;20384;-68
2022/04/24 15:01:14;;;;;;;;;;;;;;;14.77;14.79;97088.03;6372179;27;19925;-68
2022/04/24 15:04:15;;;;;;;;;;;;;;;14.59;14.82;97089.47;6371910;27;20418;-67
2022/04/24 15:07:17;;;;;;;;;;;;;;;14.77;15.59;97082.72;6372023;27;19924;-65
2022/04/24 15:10:20;;;;;;;;;;;;;;;14.51;15.77;97087.38;6372377;27;19925;-66
2022/04/24 15:13:23;;;;;;;;;;;;;;;14.38;15.71;97079.56;6372049;27;19924;-66
2022/04/24 15:16:27;;;;;;;;;;;;;;;14.45;15.71;97081.72;6372688;27;19931;-66
2022/04/24 15:19:28;;;;;;;;;;;;;;;14.58;16.00;97090.44;6371669;27;20308;-66
2022/04/24 15:22:29;;;;;;;;;;;;;;;14.56;15.80;97090.56;6371616;27;19924;-69
2022/04/24 15:25:31;;;;;;;;;;;;;;;14.70;15.78;97086.84;6372036;27;19923;-70
2022/04/24 15:28:33;;;;;;;;;;;;;;;14.71;16.01;97088.50;6353848;27;19923;-68
2022/04/24 15:31:34;;;;;;;;;;;;;;;14.65;15.83;97088.16;6353454;27;20431;-68
2022/04/24 15:34:35;;;;;;;;;;;;;;;14.85;15.80;97089.25;6371687;27;20362;-66
2022/04/24 15:37:37;;;;;;;;;;;;;;;14.61;15.88;97092.84;6371816;27;19931;-67
2022/04/24 15:40:39;;;;;;;;;;;;;;;14.58;15.96;97087.81;6371639;27;19968;-68
2022/04/24 15:43:40;;;;;;;;;;;;;;;14.50;15.95;97095.47;6371499;27;19930;-70
2022/04/24 15:46:42;;;;;;;;;;;;;;;14.37;16.08;97090.25;6372068;27;19958;-71
2022/04/24 15:49:44;;;;;;;;;;;;;;;14.24;16.13;97089.50;6372635;27;19976;-70
2022/04/24 15:52:46;;;;;;;;;;;;;;;14.19;16.21;97092.50;6372262;27;19948;-71
2022/04/24 15:55:47;;;;;;;;;;;;;;;14.01;16.22;97099.16;6372108;27;19923;-69
2022/04/24 15:58:49;;;;;;;;;;;;;;;13.81;16.52;97101.50;6372010;27;19974;-69
2022/04/24 16:01:50;;;;;;;;;;;;;;;13.78;17.07;97104.38;6372016;27;19924;-70
2022/04/24 16:04:51;;;;;;;;;;;;;;;13.62;17.38;97103.84;6353504;27;19923;-69
2022/04/24 16:07:55;;;;;;;;;;;;;;;13.26;17.40;97108.19;6370801;27;20369;-68
2022/04/24 16:10:56;;;;;;;;;;;;;;;13.15;17.62;97100.16;6370943;27;20449;-68
2022/04/24 16:13:59;;;;;;;;;;;;;;;12.77;17.88;97111.66;6371722;27;19923;-66
2022/04/24 16:17:02;;;;;;;;;;;;;;;12.77;18.36;97103.72;6369318;27;20491;-65
2022/04/24 16:20:08;;;;;;;;;;;;;;;12.54;18.56;97100.88;6353515;27;19955;-67
2022/04/24 16:23:11;;;;;;;;;;;;;;;12.43;18.82;97098.16;6370865;27;20381;-67
2022/04/24 16:26:12;;;;;;;;;;;;;;;12.33;19.02;97102.34;6371066;28;19976;-68
2022/04/24 16:32:40;;;;;;;;;;;;;;;12.34;19.38;97109.31;6370516;28;20497;-65